createdAt,value
2022-08-21T00:03:13.174Z,97.00
2022-08-21T00:08:16.235Z,96.98
2022-08-21T00:13:21.030Z,97.20
2022-08-21T00:18:25.367Z,97.38
2022-08-21T00:23:28.199Z,97.62
2022-08-21T00:28:31.303Z,97.77
2022-08-21T00:33:35.012Z,97.92
2022-08-21T00:38:38.196Z,98.12
2022-08-21T00:43:41.487Z,98.14
2022-08-21T00:48:44.285Z,97.76
2022-08-21T00:53:51.743Z,97.34
2022-08-21T00:58:59.335Z,98.01
2022-08-21T01:04:02.626Z,98.05
2022-08-21T01:09:05.751Z,97.92
2022-08-21T01:14:08.772Z,97.69
2022-08-21T01:19:12.907Z,97.84
2022-08-21T01:24:15.994Z,97.79
2022-08-21T01:29:44.420Z,97.98
2022-08-21T01:34:50.188Z,98.12
2022-08-21T01:39:53.254Z,98.48
2022-08-21T01:44:56.323Z,98.14
2022-08-21T01:49:59.423Z,98.62
2022-08-21T01:55:04.037Z,98.60
2022-08-21T02:00:11.948Z,98.94
2022-08-21T02:05:14.795Z,98.62
2022-08-21T02:10:29.115Z,99.07
2022-08-21T02:15:32.441Z,99.03
2022-08-21T02:20:55.742Z,98.98
2022-08-21T02:26:03.035Z,99.03
2022-08-21T02:31:07.891Z,98.99
2022-08-21T02:36:12.392Z,99.16
2022-08-21T02:41:21.854Z,99.07
2022-08-21T02:46:24.891Z,99.38
2022-08-21T02:51:27.833Z,99.23
2022-08-21T02:56:31.651Z,99.50
2022-08-21T03:01:34.801Z,99.67
2022-08-21T03:06:37.891Z,99.47
2022-08-21T03:11:40.758Z,99.51
2022-08-21T03:16:43.534Z,99.48
2022-08-21T03:21:46.589Z,99.80
2022-08-21T03:26:50.036Z,99.88
2022-08-21T03:31:55.112Z,100.00
2022-08-21T03:36:57.972Z,99.69
2022-08-21T03:42:01.089Z,99.83
2022-08-21T03:47:05.545Z,99.84
2022-08-21T03:52:08.438Z,99.96
2022-08-21T03:57:12.054Z,99.92
2022-08-21T04:02:19.331Z,100.00
2022-08-21T04:07:22.292Z,100.00
2022-08-21T04:12:25.252Z,99.93
2022-08-21T04:17:28.214Z,100.00
2022-08-21T04:22:32.472Z,100.00
2022-08-21T04:27:35.979Z,100.00
2022-08-21T04:32:42.701Z,100.00
2022-08-21T04:37:45.639Z,100.00
2022-08-21T04:42:51.379Z,100.00
2022-08-21T04:47:59.643Z,99.92
2022-08-21T04:53:02.599Z,99.67
2022-08-21T04:58:10.023Z,99.54
2022-08-21T05:03:15.046Z,99.34
2022-08-21T05:08:22.528Z,99.40
2022-08-21T05:13:25.552Z,99.10
2022-08-21T05:18:28.469Z,98.47
2022-08-21T05:23:33.582Z,98.15
2022-08-21T05:28:36.609Z,97.71
2022-08-21T05:33:39.844Z,97.23
2022-08-21T05:38:47.702Z,97.00
2022-08-21T05:43:50.841Z,96.74
2022-08-21T05:48:53.688Z,96.24
2022-08-21T05:53:56.420Z,96.04
2022-08-21T05:58:59.362Z,95.55
2022-08-21T06:04:02.507Z,95.55
2022-08-21T06:09:06.590Z,95.10
2022-08-21T06:14:09.369Z,94.95
2022-08-21T06:19:12.771Z,94.27
2022-08-21T06:24:16.232Z,94.62
2022-08-21T06:29:20.776Z,94.32
2022-08-21T06:34:23.794Z,94.49
2022-08-21T06:39:30.577Z,94.37
2022-08-21T06:44:33.717Z,94.08
2022-08-21T06:49:37.690Z,93.23
2022-08-21T06:54:42.120Z,93.10
2022-08-21T06:59:44.848Z,93.09
2022-08-21T07:04:47.590Z,91.75
2022-08-21T07:09:50.369Z,91.59
2022-08-21T07:14:53.226Z,90.41
2022-08-21T07:19:56.142Z,89.78
2022-08-21T07:24:58.943Z,88.46
2022-08-21T07:30:01.845Z,87.91
2022-08-21T07:35:05.263Z,86.72
2022-08-21T07:40:09.071Z,86.11
2022-08-21T07:45:13.161Z,85.00
2022-08-21T07:50:16.963Z,83.92
2022-08-21T07:55:22.659Z,83.47
2022-08-21T08:00:28.708Z,83.36
2022-08-21T08:05:32.953Z,83.04
2022-08-21T08:10:36.825Z,83.06
2022-08-21T08:15:39.619Z,82.44
2022-08-21T08:20:42.614Z,80.99
2022-08-21T08:25:46.084Z,80.21
2022-08-21T08:30:50.249Z,79.23
2022-08-21T08:35:53.284Z,78.15
2022-08-21T08:41:13.519Z,77.34
2022-08-21T08:46:20.221Z,77.33
2022-08-21T08:51:34.009Z,77.21
2022-08-21T08:56:37.355Z,77.08
2022-08-21T09:01:40.306Z,78.28
2022-08-21T09:07:26.985Z,77.45
2022-08-21T09:12:40.990Z,76.18
2022-08-21T09:18:11.147Z,76.30
2022-08-21T09:23:51.267Z,75.68
2022-08-21T09:28:59.109Z,75.35
2022-08-21T09:34:10.145Z,74.78
2022-08-21T09:39:31.319Z,74.82
2022-08-21T09:44:41.568Z,74.58
2022-08-21T09:49:45.134Z,75.17
2022-08-21T09:54:55.453Z,74.31
2022-08-21T10:00:23.992Z,74.31
2022-08-21T10:05:28.334Z,75.03
2022-08-21T10:10:37.530Z,74.52
2022-08-21T10:16:02.775Z,73.58
2022-08-21T10:21:26.700Z,74.32
2022-08-21T10:26:37.254Z,74.67
2022-08-21T10:32:03.887Z,74.70
2022-08-21T10:37:37.399Z,74.96
2022-08-21T10:42:58.724Z,74.96
2022-08-21T10:48:09.084Z,74.83
2022-08-21T10:53:35.723Z,74.58
2022-08-21T10:58:50.884Z,74.67
2022-08-21T11:04:10.126Z,75.93
2022-08-21T11:09:18.585Z,75.81
2022-08-21T11:14:50.338Z,75.32
2022-08-21T11:20:39.137Z,75.42
2022-08-21T11:25:48.216Z,74.37
2022-08-21T11:31:45.272Z,73.22
2022-08-21T11:37:39.083Z,72.49
2022-08-21T11:43:12.006Z,71.32
2022-08-21T11:49:05.413Z,71.21
2022-08-21T11:54:36.631Z,70.96
2022-08-21T11:59:58.376Z,70.48
2022-08-21T12:05:09.431Z,70.04
2022-08-21T12:10:22.062Z,70.46
2022-08-21T12:15:29.782Z,70.46
2022-08-21T12:20:57.357Z,69.69
2022-08-21T12:26:32.352Z,69.32
2022-08-21T12:31:36.140Z,68.78
2022-08-21T12:37:15.757Z,69.18
2022-08-21T12:42:32.521Z,68.98
2022-08-21T12:48:05.232Z,68.41
2022-08-21T12:53:18.513Z,69.11
2022-08-21T12:58:25.806Z,70.68
2022-08-21T13:03:29.312Z,72.14
2022-08-21T13:08:40.899Z,73.84
2022-08-21T13:13:51.526Z,74.23
2022-08-21T13:19:09.580Z,74.27
2022-08-21T13:24:45.668Z,74.54
2022-08-21T13:29:53.297Z,74.13
2022-08-21T13:34:58.819Z,74.36
2022-08-21T13:40:01.896Z,73.96
2022-08-21T13:45:05.483Z,74.35
2022-08-21T13:50:09.860Z,74.63
2022-08-21T13:55:18.472Z,73.58
2022-08-21T14:00:29.354Z,73.83
2022-08-21T14:05:36.448Z,74.61
2022-08-21T14:10:49.268Z,75.22
2022-08-21T14:16:02.523Z,74.91
2022-08-21T14:21:10.658Z,75.03
2022-08-21T14:26:13.607Z,74.90
2022-08-21T14:31:21.544Z,75.67
2022-08-21T14:36:25.530Z,75.21
2022-08-21T14:41:30.417Z,75.24
2022-08-21T14:46:36.513Z,75.43
2022-08-21T14:51:54.351Z,75.65
2022-08-21T14:57:00.981Z,75.74
2022-08-21T15:02:07.726Z,76.27
2022-08-21T15:07:10.715Z,76.58
2022-08-21T15:12:15.889Z,76.75
2022-08-21T15:17:18.789Z,76.74
2022-08-21T15:22:27.910Z,77.57
2022-08-21T15:27:32.379Z,78.31
2022-08-21T15:32:35.215Z,78.83
2022-08-21T15:37:38.387Z,79.26
2022-08-21T15:42:43.018Z,80.06
2022-08-21T15:47:49.020Z,80.38
2022-08-21T15:52:52.880Z,81.01
2022-08-21T15:57:59.931Z,82.09
2022-08-21T16:03:07.384Z,83.25
2022-08-21T16:08:11.876Z,84.15
2022-08-21T16:13:32.695Z,85.86
2022-08-21T16:18:35.595Z,87.41
2022-08-21T16:23:40.379Z,88.54
2022-08-21T16:28:46.461Z,89.93
2022-08-21T16:33:57.834Z,91.14
2022-08-21T16:39:02.063Z,92.42
2022-08-21T16:44:06.900Z,93.48
2022-08-21T16:49:10.296Z,95.05
2022-08-21T16:54:14.047Z,95.52
2022-08-21T16:59:17.755Z,96.18
2022-08-21T17:04:21.032Z,97.46
2022-08-21T17:09:23.953Z,97.64
2022-08-21T17:14:26.805Z,98.48
2022-08-21T17:19:29.700Z,98.41
2022-08-21T17:24:32.772Z,99.29
2022-08-21T17:29:40.164Z,99.26
2022-08-21T17:34:43.186Z,100.00
2022-08-21T17:39:46.090Z,100.00
2022-08-21T17:44:49.174Z,100.00
2022-08-21T17:49:52.054Z,100.00
2022-08-21T17:54:55.199Z,100.00
2022-08-21T17:59:58.643Z,100.00
2022-08-21T18:05:01.936Z,100.00
2022-08-21T18:10:13.572Z,100.00
2022-08-21T18:15:19.513Z,100.00
2022-08-21T18:20:24.610Z,100.00
2022-08-21T18:25:28.855Z,100.00
2022-08-21T18:30:34.556Z,100.00
2022-08-21T18:35:38.150Z,100.00
2022-08-21T18:40:55.127Z,100.00
2022-08-21T18:45:58.697Z,100.00
2022-08-21T18:51:01.890Z,100.00
2022-08-21T18:56:07.110Z,100.00
2022-08-21T19:01:18.321Z,100.00
2022-08-21T19:06:21.323Z,100.00
2022-08-21T19:11:26.083Z,100.00
2022-08-21T19:16:29.299Z,100.00
2022-08-21T19:21:32.470Z,100.00
2022-08-21T19:26:35.724Z,100.00
2022-08-21T19:31:44.695Z,100.00
2022-08-21T19:36:48.043Z,100.00
2022-08-21T19:41:56.776Z,100.00
2022-08-21T19:47:00.788Z,100.00
2022-08-21T19:52:13.164Z,100.00
2022-08-21T19:57:17.479Z,100.00
2022-08-21T20:02:20.546Z,100.00
2022-08-21T20:07:26.543Z,100.00
2022-08-21T20:12:30.252Z,100.00
2022-08-21T20:17:33.077Z,100.00
2022-08-21T20:22:36.541Z,100.00
2022-08-21T20:33:03.235Z,100.00
2022-08-21T20:38:06.544Z,100.00
2022-08-21T20:43:12.658Z,100.00
2022-08-21T20:48:28.531Z,100.00
2022-08-21T20:54:01.166Z,100.00
2022-08-21T20:59:33.739Z,100.00
2022-08-21T21:04:56.074Z,100.00
2022-08-21T21:10:05.999Z,100.00
2022-08-21T21:15:26.016Z,100.00
2022-08-21T21:20:46.980Z,100.00
2022-08-21T21:26:23.917Z,100.00
2022-08-21T21:31:32.621Z,100.00
2022-08-21T21:36:58.906Z,100.00
2022-08-21T21:42:37.343Z,100.00
2022-08-21T21:47:56.071Z,100.00
2022-08-21T21:53:36.111Z,100.00
2022-08-21T21:59:25.981Z,100.00
2022-08-21T22:04:53.856Z,100.00
2022-08-21T22:10:19.864Z,100.00
2022-08-21T22:15:33.303Z,100.00
2022-08-21T22:20:56.186Z,100.00
2022-08-21T22:26:12.773Z,100.00
2022-08-21T22:31:34.633Z,100.00
2022-08-21T22:42:20.899Z,100.00
2022-08-21T22:47:33.735Z,100.00
2022-08-21T22:52:44.885Z,100.00
2022-08-21T22:57:48.155Z,100.00
2022-08-21T23:02:57.010Z,100.00
2022-08-21T23:08:24.019Z,100.00
2022-08-21T23:13:37.748Z,100.00
2022-08-21T23:19:19.425Z,100.00
2022-08-21T23:24:33.674Z,100.00
2022-08-21T23:30:01.437Z,100.00
2022-08-21T23:35:59.769Z,100.00
2022-08-21T23:41:34.443Z,100.00
2022-08-21T23:46:50.581Z,100.00
2022-08-21T23:52:27.390Z,100.00
2022-08-21T23:57:48.944Z,100.00
